Carlotta, California
Current Conditions -  °F | °C
As of 9:50 AM on Saturday 25 Oct 2014 (Local Time) from KFOT Reporting Station
Broken Clouds Broken Clouds  
Wind Chill: 15°   Ceiling: 3200
Heat Index: 15°   Visibility: 2.5mi
Dew Point: 13°   Wind: 24mph
Humidity: 88%   Direction: 160°SSE
Pressure: 29.72"   Gusts: 36mph
Location:  40.54°N, 124.06°W
Report Text: KFOT 251650Z AUTO 16021G31KT 2 1/2SM FEW025 BKN032 BKN038 15/13 A2972 RMK AO1 P0006
Loading
Personal Weather Stations






























Interactive Weather Map
Tropical Storm Tracking
New forecast layout! Learn more

10-Day Weather Forecast

Advertisements
Track Severe Weather on mobile